Time;durP1;ratioP1;P1;durP2;ratioP2;P2;SDS_P1;SDS_P2;PMS_P1;PMS_P2;Temp;Humidity;BMP_temperature;BMP_pressure;BME280_temperature;BME280_humidity;BME280_pressure;Samples;Min_cycle;Max_cycle;Signal;HPM_P1;HPM_P2
2023/04/30 09:35:37;;;;;;;6.40;2.70;;;;;;;;;;6173057;22;1530815;-92
2023/04/30 09:38:04;;;;;;;4.40;3.17;;;;;;;;;;6197303;23;20016;-91
2023/04/30 09:40:40;;;;;;;5.05;2.88;;;;;;;;;;6219399;23;20008;-92
2023/04/30 09:43:07;;;;;;;6.75;3.30;;;;;;;;;;6218295;23;20377;-90
2023/04/30 09:45:43;;;;;;;6.75;3.58;;;;;;;;;;6219570;23;20004;-92
2023/04/30 09:48:10;;;;;;;3.95;2.97;;;;;;;;;;6219353;23;20028;-92
2023/04/30 09:50:40;;;;;;;5.50;3.08;;;;;;;;;;6220209;23;20445;-95
2023/04/30 09:53:12;;;;;;;6.18;2.97;;;;;;;;;;6219934;23;20008;-94
2023/04/30 09:55:38;;;;;;;6.47;3.28;;;;;;;;;;6219884;23;20004;-94
2023/04/30 09:58:05;;;;;;;4.50;3.13;;;;;;;;;;6221275;23;20035;-92
2023/04/30 10:00:33;;;;;;;5.53;3.20;;;;;;;;;;6219873;23;20078;-94
2023/04/30 10:03:01;;;;;;;5.45;3.15;;;;;;;;;;6220842;23;20027;-91
2023/04/30 10:05:27;;;;;;;5.88;3.08;;;;;;;;;;6221274;23;20004;-90
2023/04/30 10:07:54;;;;;;;6.38;3.00;;;;;;;;;;6221226;23;20011;-93
2023/04/30 10:10:20;;;;;;;4.57;3.45;;;;;;;;;;6221544;23;20329;-95
2023/04/30 10:12:56;;;;;;;5.93;3.35;;;;;;;;;;6221626;23;20023;-90
2023/04/30 10:15:28;;;;;;;4.15;2.88;;;;;;;;;;6221806;23;20031;-91
2023/04/30 10:18:08;;;;;;;4.40;2.95;;;;;;;;;;6221053;23;20011;-95
2023/04/30 10:20:38;;;;;;;4.95;3.08;;;;;;;;;;6221681;23;20012;-94
2023/04/30 10:23:06;;;;;;;6.25;3.38;;;;;;;;;;6221598;23;20000;-92
2023/04/30 10:25:32;;;;;;;5.03;3.40;;;;;;;;;;6221773;23;20433;-91
2023/04/30 10:27:58;;;;;;;4.47;3.20;;;;;;;;;;6221243;23;20000;-93
2023/04/30 10:30:26;;;;;;;3.55;2.80;;;;;;;;;;6221877;23;20032;-93
2023/04/30 10:32:52;;;;;;;4.95;2.85;;;;;;;;;;6219337;23;20394;-94
2023/04/30 10:35:35;;;;;;;7.28;3.35;;;;;;;;;;6218560;23;20323;-93
2023/04/30 10:38:12;;;;;;;5.35;3.13;;;;;;;;;;6190662;23;20103;-91
2023/04/30 10:40:38;;;;;;;5.00;3.47;;;;;;;;;;6191188;23;20020;-92
2023/04/30 10:43:04;;;;;;;6.25;3.20;;;;;;;;;;6193005;23;20028;-91
2023/04/30 10:45:35;;;;;;;4.10;2.92;;;;;;;;;;6191046;23;20120;-92
2023/04/30 10:48:02;;;;;;;4.97;3.42;;;;;;;;;;6191190;23;20009;-93
2023/04/30 10:50:29;;;;;;;5.80;2.90;;;;;;;;;;6192551;23;20012;-93
2023/04/30 10:53:06;;;;;;;5.13;2.90;;;;;;;;;;6192837;23;20426;-94
2023/04/30 10:55:32;;;;;;;4.63;2.83;;;;;;;;;;6166632;23;20036;-91
2023/04/30 10:57:59;;;;;;;5.45;3.20;;;;;;;;;;6191163;23;20442;-93
2023/04/30 11:00:26;;;;;;;4.20;3.10;;;;;;;;;;6191038;23;20448;-92
2023/04/30 11:02:57;;;;;;;4.53;2.97;;;;;;;;;;6191097;23;20054;-94
2023/04/30 11:05:34;;;;;;;5.93;3.25;;;;;;;;;;6190734;23;20083;-92
2023/04/30 11:08:10;;;;;;;5.97;3.38;;;;;;;;;;6191304;23;20418;-96
2023/04/30 11:10:37;;;;;;;5.20;3.13;;;;;;;;;;6191154;23;20004;-92
2023/04/30 11:13:09;;;;;;;6.65;3.22;;;;;;;;;;6191050;23;20005;-92
2023/04/30 11:15:40;;;;;;;4.22;2.80;;;;;;;;;;6191335;23;20005;-94
2023/04/30 11:18:07;;;;;;;5.00;3.55;;;;;;;;;;6191242;23;20080;-93
2023/04/30 11:20:33;;;;;;;4.80;3.30;;;;;;;;;;6191288;23;20441;-94
2023/04/30 11:23:13;;;;;;;4.43;3.00;;;;;;;;;;6191052;23;20005;-95
2023/04/30 11:25:40;;;;;;;6.65;3.65;;;;;;;;;;6191109;23;20005;-96
2023/04/30 11:28:06;;;;;;;7.15;3.72;;;;;;;;;;6190884;23;20007;-94
2023/04/30 11:30:33;;;;;;;5.32;3.13;;;;;;;;;;6191530;23;20039;-93
2023/04/30 11:33:00;;;;;;;8.25;3.45;;;;;;;;;;6190763;23;20011;-95
2023/04/30 11:35:28;;;;;;;5.25;3.03;;;;;;;;;;6190738;23;20011;-94
2023/04/30 11:44:21;;;;;;;5.88;3.50;;;;;;;;;;6215509;23;20083;-94
2023/04/30 11:46:48;;;;;;;7.80;3.58;;;;;;;;;;6191126;23;20039;-95
2023/04/30 11:49:14;;;;;;;6.30;4.38;;;;;;;;;;6190986;23;20024;-93
2023/04/30 11:51:41;;;;;;;5.45;3.88;;;;;;;;;;6190994;23;20008;-95
2023/04/30 11:54:13;;;;;;;5.03;3.60;;;;;;;;;;6190634;23;20005;-93
2023/04/30 11:56:47;;;;;;;5.25;3.58;;;;;;;;;;6191337;23;20000;-96
2023/04/30 11:59:13;;;;;;;6.18;3.20;;;;;;;;;;6190717;23;20000;-94
2023/04/30 12:01:39;;;;;;;6.18;3.53;;;;;;;;;;6191151;23;20008;-92
2023/04/30 12:04:06;;;;;;;6.25;3.65;;;;;;;;;;6190210;23;20088;-93
2023/04/30 12:06:32;;;;;;;4.53;3.42;;;;;;;;;;6190169;23;20008;-93
2023/04/30 12:09:09;;;;;;;4.57;3.28;;;;;;;;;;6190526;23;20083;-93
2023/04/30 12:11:35;;;;;;;6.50;3.20;;;;;;;;;;6189949;23;20009;-94
2023/04/30 12:14:03;;;;;;;4.57;2.88;;;;;;;;;;6189917;23;20472;-92
2023/04/30 12:16:39;;;;;;;5.40;3.10;;;;;;;;;;6190141;23;20035;-93
2023/04/30 12:19:05;;;;;;;5.30;3.25;;;;;;;;;;6189832;23;20012;-92
2023/04/30 12:21:32;;;;;;;5.53;3.50;;;;;;;;;;6190157;23;20019;-92
2023/04/30 12:23:58;;;;;;;5.00;3.25;;;;;;;;;;6189918;23;20005;-95
2023/04/30 12:26:34;;;;;;;4.95;3.50;;;;;;;;;;6189655;23;20046;-94
2023/04/30 12:29:00;;;;;;;4.28;2.97;;;;;;;;;;6190293;23;20008;-93
2023/04/30 12:31:26;;;;;;;5.35;2.90;;;;;;;;;;6190300;23;20438;-92
2023/04/30 12:33:53;;;;;;;5.10;2.90;;;;;;;;;;6189883;23;20066;-93
2023/04/30 12:36:20;;;;;;;4.65;2.80;;;;;;;;;;6200578;23;20056;-93
2023/04/30 12:38:46;;;;;;;4.90;2.75;;;;;;;;;;6219643;23;20083;-93
2023/04/30 12:41:14;;;;;;;6.15;2.85;;;;;;;;;;6221063;23;20012;-93
2023/04/30 12:43:40;;;;;;;4.28;2.55;;;;;;;;;;6220974;23;20085;-93
2023/04/30 12:46:06;;;;;;;4.68;2.55;;;;;;;;;;6219708;23;20008;-92
2023/04/30 12:48:43;;;;;;;10.00;6.30;;;;;;;;;;6219225;23;20087;-93
2023/04/30 12:51:10;;;;;;;11.90;7.72;;;;;;;;;;6220526;23;20012;-95
2023/04/30 12:53:46;;;;;;;4.60;2.80;;;;;;;;;;6220276;23;20079;-95
2023/04/30 12:56:16;;;;;;;5.57;2.70;;;;;;;;;;6219987;23;20001;-95
2023/04/30 12:58:48;;;;;;;4.10;2.42;;;;;;;;;;6220379;23;20410;-94
2023/04/30 13:01:16;;;;;;;4.93;2.83;;;;;;;;;;6220177;23;20039;-95
2023/04/30 13:03:43;;;;;;;3.88;2.60;;;;;;;;;;6246805;23;20024;-94
2023/04/30 13:06:09;;;;;;;3.67;2.25;;;;;;;;;;6219685;23;20004;-93
2023/04/30 13:08:36;;;;;;;4.40;2.50;;;;;;;;;;6219852;23;20011;-94
2023/04/30 13:11:03;;;;;;;4.45;2.50;;;;;;;;;;6219716;23;20108;-95
2023/04/30 13:13:29;;;;;;;3.53;2.22;;;;;;;;;;6219476;23;20058;-95
2023/04/30 13:15:55;;;;;;;4.55;2.20;;;;;;;;;;6219812;23;20440;-94
2023/04/30 13:18:21;;;;;;;4.22;2.30;;;;;;;;;;6219301;23;20027;-94
2023/04/30 13:20:48;;;;;;;4.90;2.28;;;;;;;;;;6219221;23;20099;-94
2023/04/30 13:23:14;;;;;;;4.20;2.40;;;;;;;;;;6219515;23;20004;-94
2023/04/30 13:25:40;;;;;;;4.05;2.33;;;;;;;;;;6219622;23;20015;-93
2023/04/30 13:28:07;;;;;;;3.80;2.28;;;;;;;;;;6219516;23;20004;-93
2023/04/30 13:30:33;;;;;;;7.68;2.40;;;;;;;;;;6219366;23;20421;-94
2023/04/30 13:33:00;;;;;;;4.45;2.30;;;;;;;;;;6219402;23;20134;-94
2023/04/30 13:35:26;;;;;;;3.35;2.13;;;;;;;;;;6219736;23;20068;-94
2023/04/30 13:37:52;;;;;;;4.43;2.10;;;;;;;;;;6220240;23;20016;-93
2023/04/30 13:40:23;;;;;;;3.85;1.60;;;;;;;;;;6216666;23;20012;-95
2023/04/30 13:42:50;;;;;;;2.92;2.00;;;;;;;;;;6216553;23;20005;-96
2023/04/30 13:45:16;;;;;;;4.50;2.25;;;;;;;;;;6216635;23;20008;-94
2023/04/30 13:47:42;;;;;;;5.45;2.30;;;;;;;;;;6217059;23;20028;-96
2023/04/30 13:50:09;;;;;;;5.57;2.45;;;;;;;;;;6216705;23;20011;-94
2023/04/30 13:52:35;;;;;;;3.80;1.88;;;;;;;;;;6216336;23;20001;-94
2023/04/30 13:55:03;;;;;;;3.65;2.05;;;;;;;;;;6217283;23;20031;-93
2023/04/30 13:57:31;;;;;;;3.53;2.10;;;;;;;;;;6215530;23;20001;-92
2023/04/30 13:59:58;;;;;;;3.55;2.10;;;;;;;;;;6214548;23;20009;-92
2023/04/30 14:02:26;;;;;;;3.20;1.83;;;;;;;;;;6214659;23;20008;-94
2023/04/30 14:04:53;;;;;;;5.93;2.35;;;;;;;;;;6214431;23;20012;-93
2023/04/30 14:07:19;;;;;;;3.83;2.22;;;;;;;;;;6214385;23;20005;-94
2023/04/30 14:09:45;;;;;;;4.15;2.28;;;;;;;;;;6217292;23;20008;-96
2023/04/30 14:12:20;;;;;;;4.30;1.92;;;;;;;;;;6211847;23;20087;-95
2023/04/30 14:22:59;;;;;;;3.75;1.88;;;;;;;;;;6186682;23;20451;-93
2023/04/30 14:25:25;;;;;;;4.25;1.80;;;;;;;;;;6159006;23;20071;-92
2023/04/30 14:27:51;;;;;;;4.32;1.85;;;;;;;;;;6160463;23;20024;-93
2023/04/30 14:30:17;;;;;;;3.53;1.70;;;;;;;;;;6161191;23;20079;-89
2023/04/30 14:32:43;;;;;;;4.07;1.65;;;;;;;;;;6161307;23;20088;-88
2023/04/30 14:35:10;;;;;;;5.70;1.75;;;;;;;;;;6160816;23;20084;-89
2023/04/30 14:37:36;;;;;;;3.90;1.48;;;;;;;;;;6187288;23;20332;-90
2023/04/30 14:40:04;;;;;;;4.28;2.10;;;;;;;;;;6161137;23;20444;-92
2023/04/30 14:42:33;;;;;;;3.30;1.70;;;;;;;;;;6161561;23;20377;-93
2023/04/30 14:44:59;;;;;;;3.53;1.80;;;;;;;;;;6161277;23;20005;-93
2023/04/30 14:47:28;;;;;;;3.58;1.67;;;;;;;;;;6162871;23;20005;-95
2023/04/30 14:49:54;;;;;;;4.57;1.50;;;;;;;;;;6167703;23;20001;-90
2023/04/30 14:52:21;;;;;;;3.42;1.73;;;;;;;;;;6161552;23;20016;-93
2023/04/30 14:54:47;;;;;;;2.72;1.58;;;;;;;;;;6161750;23;20012;-94
2023/04/30 14:57:14;;;;;;;3.25;1.88;;;;;;;;;;6161259;23;20005;-95
2023/04/30 14:59:40;;;;;;;4.18;1.90;;;;;;;;;;6161216;23;20017;-94
2023/04/30 15:02:06;;;;;;;3.70;1.67;;;;;;;;;;6161238;23;20005;-95
2023/04/30 15:04:33;;;;;;;2.88;1.60;;;;;;;;;;6161647;23;20019;-96
2023/04/30 15:06:59;;;;;;;4.25;1.70;;;;;;;;;;6161468;23;20033;-95
2023/04/30 15:09:30;;;;;;;4.03;1.92;;;;;;;;;;6161137;23;20012;-95
2023/04/30 15:11:56;;;;;;;5.00;1.90;;;;;;;;;;6161302;23;20009;-95
2023/04/30 15:14:22;;;;;;;3.20;1.60;;;;;;;;;;6160771;23;20004;-94
2023/04/30 15:16:48;;;;;;;3.33;1.80;;;;;;;;;;6160930;23;20056;-95
2023/04/30 15:19:15;;;;;;;3.58;1.88;;;;;;;;;;6160978;23;20005;-96
2023/04/30 15:21:41;;;;;;;3.45;1.88;;;;;;;;;;6169224;23;20607;-94
2023/04/30 15:24:07;;;;;;;3.92;1.77;;;;;;;;;;6185918;23;20005;-95
2023/04/30 15:26:33;;;;;;;5.10;1.77;;;;;;;;;;6185734;23;20032;-96
2023/04/30 15:29:00;;;;;;;3.17;1.80;;;;;;;;;;6185018;23;20029;-93
2023/04/30 15:31:26;;;;;;;4.75;1.52;;;;;;;;;;6185641;23;20549;-94
2023/04/30 15:33:52;;;;;;;3.22;1.75;;;;;;;;;;6185684;23;20009;-93
2023/04/30 15:36:19;;;;;;;3.65;1.85;;;;;;;;;;6185587;23;20101;-93
2023/04/30 15:38:45;;;;;;;4.75;1.60;;;;;;;;;;6185637;23;20040;-92
2023/04/30 15:41:11;;;;;;;3.50;1.83;;;;;;;;;;6185466;23;20013;-93
2023/04/30 15:43:37;;;;;;;3.55;1.63;;;;;;;;;;6185890;23;20031;-93
2023/04/30 15:46:04;;;;;;;4.90;1.90;;;;;;;;;;6186676;23;20016;-92
2023/04/30 15:48:30;;;;;;;2.80;1.48;;;;;;;;;;6185736;23;20005;-93
2023/04/30 15:50:57;;;;;;;4.53;1.52;;;;;;;;;;6185490;23;20005;-91
2023/04/30 15:53:23;;;;;;;4.90;1.67;;;;;;;;;;6185174;23;20009;-93
2023/04/30 15:55:49;;;;;;;4.32;1.60;;;;;;;;;;6185432;23;20028;-95
2023/04/30 15:58:16;;;;;;;2.90;1.58;;;;;;;;;;6185753;23;20001;-94
2023/04/30 16:00:42;;;;;;;3.47;1.50;;;;;;;;;;6184818;23;20342;-94
2023/04/30 16:03:08;;;;;;;3.38;1.85;;;;;;;;;;6185471;23;20060;-93
2023/04/30 16:05:37;;;;;;;2.35;1.30;;;;;;;;;;6185135;23;20078;-93
2023/04/30 16:08:07;;;;;;;4.25;1.80;;;;;;;;;;6185690;23;20084;-93
2023/04/30 16:10:33;;;;;;;4.07;1.70;;;;;;;;;;6185639;23;20311;-93
2023/04/30 16:13:00;;;;;;;3.17;1.80;;;;;;;;;;6185127;23;20001;-93
2023/04/30 16:15:26;;;;;;;6.18;1.80;;;;;;;;;;6185058;23;20091;-92
2023/04/30 16:17:52;;;;;;;2.92;1.67;;;;;;;;;;6185025;23;20009;-94
2023/04/30 16:20:19;;;;;;;4.65;1.58;;;;;;;;;;6185048;23;20019;-93
2023/04/30 16:22:47;;;;;;;2.58;1.30;;;;;;;;;;6184200;23;20017;-94
2023/04/30 16:25:13;;;;;;;5.20;1.60;;;;;;;;;;6185174;23;20430;-93
2023/04/30 16:27:39;;;;;;;4.65;1.90;;;;;;;;;;6185002;23;20005;-93
2023/04/30 16:30:06;;;;;;;3.78;1.50;;;;;;;;;;6185110;23;20006;-93
2023/04/30 16:32:32;;;;;;;5.07;1.77;;;;;;;;;;6185173;23;20426;-93
2023/04/30 16:34:58;;;;;;;3.20;1.60;;;;;;;;;;6185666;23;20005;-94
2023/04/30 16:37:25;;;;;;;4.40;1.70;;;;;;;;;;6185214;23;20043;-91
2023/04/30 16:39:51;;;;;;;2.38;1.30;;;;;;;;;;6184880;23;20017;-91
2023/04/30 16:42:17;;;;;;;2.65;1.48;;;;;;;;;;6185029;23;20005;-92
2023/04/30 16:44:43;;;;;;;4.93;1.63;;;;;;;;;;6184868;23;20009;-92
2023/04/30 16:47:09;;;;;;;4.63;1.52;;;;;;;;;;6185092;23;20402;-92
2023/04/30 16:49:36;;;;;;;4.25;1.63;;;;;;;;;;6184994;23;20005;-93
2023/04/30 16:52:02;;;;;;;4.43;1.73;;;;;;;;;;6185646;23;20016;-91
2023/04/30 16:54:28;;;;;;;4.35;1.70;;;;;;;;;;6185650;23;20426;-92
2023/04/30 16:56:54;;;;;;;3.80;1.90;;;;;;;;;;6185039;23;20009;-93
2023/04/30 16:59:23;;;;;;;4.65;1.80;;;;;;;;;;6184727;23;20015;-92
2023/04/30 17:01:49;;;;;;;6.93;1.80;;;;;;;;;;6184923;23;20008;-92
2023/04/30 17:12:33;;;;;;;3.45;1.75;;;;;;;;;;6249212;22;20353;-89
2023/04/30 17:15:07;;;;;;;6.03;2.00;;;;;;;;;;6220104;23;20491;-94
2023/04/30 17:17:33;;;;;;;3.80;1.90;;;;;;;;;;6220187;23;20000;-89
2023/04/30 17:19:59;;;;;;;4.47;2.20;;;;;;;;;;6220051;23;20110;-92
2023/04/30 17:22:41;;;;;;;6.38;2.05;;;;;;;;;;6227279;23;20011;-94
2023/04/30 17:25:28;;;;;;;6.30;2.20;;;;;;;;;;6225244;23;20362;-96
2023/04/30 17:28:19;;;;;;;5.47;2.05;;;;;;;;;;6224522;23;19985;-94
2023/04/30 17:30:46;;;;;;;6.65;1.98;;;;;;;;;;6221151;23;20337;-93
2023/04/30 17:33:12;;;;;;;5.95;2.92;;;;;;;;;;6219634;23;20004;-92
2023/04/30 17:35:38;;;;;;;12.43;6.53;;;;;;;;;;6220037;23;20004;-94
2023/04/30 17:38:06;;;;;;;6.93;4.20;;;;;;;;;;6219767;23;20078;-93
2023/04/30 17:40:33;;;;;;;8.38;4.55;;;;;;;;;;6219601;23;20020;-94
2023/04/30 17:43:00;;;;;;;7.13;4.70;;;;;;;;;;6219832;23;20008;-93
2023/04/30 17:45:26;;;;;;;4.93;3.53;;;;;;;;;;6219862;23;20103;-93
2023/04/30 17:47:55;;;;;;;5.25;3.70;;;;;;;;;;6220860;23;20117;-95
2023/04/30 17:50:25;;;;;;;8.73;4.10;;;;;;;;;;6246878;23;20011;-93
2023/04/30 17:52:52;;;;;;;6.53;3.45;;;;;;;;;;6220073;23;20000;-93
2023/04/30 17:55:18;;;;;;;6.22;2.60;;;;;;;;;;6221083;23;20004;-94
2023/04/30 17:57:44;;;;;;;4.85;2.80;;;;;;;;;;6225736;23;20005;-93
2023/04/30 18:00:11;;;;;;;5.15;2.13;;;;;;;;;;6220547;23;20012;-93
2023/04/30 18:02:37;;;;;;;4.07;2.17;;;;;;;;;;6219703;23;20131;-91
2023/04/30 18:05:06;;;;;;;4.32;2.40;;;;;;;;;;6219452;23;20012;-92
2023/04/30 18:07:32;;;;;;;4.72;2.30;;;;;;;;;;6220157;23;20001;-92
2023/04/30 18:09:58;;;;;;;4.95;2.13;;;;;;;;;;6219072;23;20004;-93
2023/04/30 18:12:24;;;;;;;4.50;2.60;;;;;;;;;;6211579;23;20016;-92
2023/04/30 18:36:27;;;;;;;9.32;4.20;;;;;;;;;;6230233;22;20016;-95
2023/04/30 18:39:15;;;;;;;7.18;4.18;;;;;;;;;;6251648;22;20000;-94
2023/04/30 18:41:41;;;;;;;6.20;4.18;;;;;;;;;;6251328;22;20007;-94
2023/04/30 18:44:19;;;;;;;10.73;4.18;;;;;;;;;;6257650;22;20109;-96
2023/04/30 18:46:55;;;;;;;;;;;;;;;;;;;;;
2023/04/30 18:49:32;;;;;;;10.20;4.97;;;;;;;;;;6291221;22;20038;-95
2023/04/30 18:52:36;;;;;;;9.10;5.25;;;;;;;;;;6260512;22;20349;-95
2023/04/30 18:58:28;;;;;;;;;;;;;;;;;;;;;
2023/04/30 19:01:36;;;;;;;6.47;4.10;;;;;;;;;;6248379;23;20043;-95
2023/04/30 19:04:02;;;;;;;7.57;4.10;;;;;;;;;;6227131;23;20016;-93
2023/04/30 19:06:35;;;;;;;6.28;3.80;;;;;;;;;;6232502;23;20008;-93
2023/04/30 19:18:44;;;;;;;;;;;;;;;;;;;;;
2023/04/30 19:27:44;;;;;;;8.80;4.93;;;;;;;;;;6102922;23;20062;-94
2023/04/30 19:38:04;;;;;;;8.13;5.32;;;;;;;;;;6245224;22;20027;-96
2023/04/30 20:01:17;;;;;;;10.20;6.25;;;;;;;;;;6126390;23;20089;-94
2023/04/30 20:13:34;;;;;;;9.40;5.28;;;;;;;;;;6213487;23;20031;-95
2023/04/30 20:19:36;;;;;;;9.90;4.85;;;;;;;;;;6242993;22;20039;-96
2023/04/30 20:34:20;;;;;;;10.20;5.43;;;;;;;;;;6076071;23;20034;-96
2023/04/30 20:36:51;;;;;;;9.90;6.03;;;;;;;;;;6053463;23;20007;-96
2023/04/30 20:39:38;;;;;;;10.77;5.82;;;;;;;;;;6051075;23;20012;-93
2023/04/30 20:42:04;;;;;;;11.05;6.57;;;;;;;;;;6050751;23;20092;-93
2023/04/30 20:44:33;;;;;;;8.13;5.40;;;;;;;;;;6051183;23;20003;-96
2023/04/30 20:50:08;;;;;;;9.73;5.95;;;;;;;;;;6072365;23;20050;-96
2023/04/30 20:52:40;;;;;;;8.20;5.35;;;;;;;;;;6084132;23;20006;-94
2023/04/30 20:57:51;;;;;;;9.45;5.88;;;;;;;;;;6238054;22;20028;-96
2023/04/30 21:00:49;;;;;;;11.15;6.35;;;;;;;;;;6188063;23;20020;-95
2023/04/30 21:03:30;;;;;;;10.90;7.00;;;;;;;;;;6077271;23;20085;-94
2023/04/30 21:05:59;;;;;;;10.05;6.25;;;;;;;;;;6193244;23;20005;-96
2023/04/30 21:08:55;;;;;;;11.20;6.68;;;;;;;;;;6162558;23;20001;-93
2023/04/30 21:11:32;;;;;;;13.10;7.28;;;;;;;;;;6164692;23;20005;-93
2023/04/30 21:14:01;;;;;;;12.63;7.90;;;;;;;;;;6155700;23;20454;-93
2023/04/30 21:24:46;;;;;;;9.43;6.80;;;;;;;;;;6234779;22;20062;-93
2023/04/30 21:27:13;;;;;;;13.32;7.10;;;;;;;;;;6222921;23;20030;-95
2023/04/30 21:36:50;;;;;;;9.10;6.55;;;;;;;;;;6070381;23;20030;-95
2023/04/30 21:39:52;;;;;;;;;;;;;;;;;;;;;
2023/04/30 21:42:56;;;;;;;8.05;6.07;;;;;;;;;;6064288;23;20089;-95
2023/04/30 21:46:12;;;;;;;;;;;;;;;;;;;;;
2023/04/30 21:48:46;;;;;;;13.25;6.72;;;;;;;;;;5936202;23;20085;-96
2023/04/30 21:54:09;;;;;;;10.30;6.88;;;;;;;;;;6080730;23;20130;-96
2023/04/30 22:31:19;;;;;;;12.57;5.00;;;;;;;;;;6221668;22;20044;-96
2023/04/30 22:49:04;;;;;;;9.10;4.60;;;;;;;;;;6257451;23;20015;-94
2023/04/30 22:51:39;;;;;;;10.57;4.60;;;;;;;;;;6232222;23;20008;-96
2023/04/30 22:59:43;;;;;;;8.25;4.10;;;;;;;;;;6262887;23;20011;-94
2023/04/30 23:02:47;;;;;;;8.57;4.40;;;;;;;;;;6235894;23;20012;-96
2023/04/30 23:05:16;;;;;;;8.57;3.83;;;;;;;;;;6134122;23;20006;-96
2023/04/30 23:07:51;;;;;;;7.10;4.28;;;;;;;;;;6111854;23;20006;-96
2023/04/30 23:10:23;;;;;;;5.78;3.83;;;;;;;;;;6111697;23;20018;-96
2023/04/30 23:12:54;;;;;;;9.18;3.70;;;;;;;;;;6113460;23;20085;-93
2023/04/30 23:15:40;;;;;;;10.82;4.20;;;;;;;;;;6110109;23;20041;-96
2023/04/30 23:28:36;;;;;;;7.53;3.83;;;;;;;;;;6197844;22;20023;-92
2023/04/30 23:49:35;;;;;;;6.68;3.60;;;;;;;;;;6016643;23;20015;-96
